Terminal Aerodrome Forecast
Issued by NWS Tampa Bay Area, FL

Current Version | Previous Version | Text Only | Print | Product List | Glossary On
Versions: 1 2 3 4 5 6 7 8 9 10 11 12 13
000
FTUS42 KTBW 202327
TAFSRQ
TAF
KSRQ 202327Z 2100/2124 10011KT P6SM FEW035 BKN100
     FM211000 08006KT P6SM FEW020 SCT250
     FM211500 10010KT P6SM SCT025 SCT250
     FM211800 11011KT P6SM SCT035 BKN200=

USA.gov is the U.S. government's official web portal to all federal, state and local government web resources and services.